Webkamera Lisätietoa Webcam


Yksityisiä sääasemia lähellä:

Sääasema Juupajoki

Sääasema Orivesi

Sääasema Muurame

Sääasema Jyväskylä

Sääasema Vihtavuori


Löydät sääaseman tiedot myös:

Finland Weather Exchange

European Weather Network

Weather Underground

AWEKAS

Windy.com



Säätiedot lähimmiltä METAR asemilta

   
EFHA - Halli (Fin-Afb), Finland
Etäisyys asemalta: Kaakko 25 km
Päivitetty: 23.01.2022 04:50
Heikkoa lumisadetta, Pilvistä  
Heikkoa lumisadetta, Pilvistä  
   Tuuli: Etelä 3.1 m/s
Tuuli: Etelä 3.1 m/s
Lämpötila: -7°C
Tuulen hyytävyys: -12°C
Kastepiste: -9°C
Kosteus: 86%
Ilmanpaine: 1019 hPa
Pilvisyys: Pilvistä
Näkyvyys: 5 km
Pilvitiedot: Pilvistä 853 m
EFHA 230250Z AUTO 17006KT 130V210 5000 -SN OVC028 M07/M09 Q1019
EFJY - Jyvaskyla (Mil/Civ), Finland
Etäisyys asemalta: Koillinen 75 km
Päivitetty: 23.01.2022 04:50
Heikkoa lumisadetta, Pilvistä  
Heikkoa lumisadetta, Pilvistä  
   Tuuli: Etelä 3.6 m/s
Tuuli: Etelä 3.6 m/s
Lämpötila: -7°C
Tuulen hyytävyys: -13°C
Kastepiste: -9°C
Kosteus: 86%
Ilmanpaine: 1018 hPa
Pilvisyys: Pilvistä
Näkyvyys: 6 km
Pilvitiedot: Pilvistä 823 m
EFJY 230250Z AUTO 19007KT 6000 -SN OVC027 M07/M09 Q1018
EFTP - Tampere/Pirkkala, Finland
Etäisyys asemalta: Lounas 81 km
Päivitetty: 23.01.2022 04:50
Heikkoja sadekuuroja, Lumisadetta, Pilvistä  
Heikkoja sadekuuroja, Lumisadetta, Pilvistä  
   Tuuli: Etelälounas 2.6 m/s
Tuuli: Etelälounas 2.6 m/s
Lämpötila: -6°C
Tuulen hyytävyys: -10°C
Kastepiste: -8°C
Kosteus: 86%
Ilmanpaine: 1019 hPa
Pilvisyys: Pilvistä
Näkyvyys: 6 km
Pilvitiedot: Pilvistä 823 m
EFTP 230250Z AUTO 20005KT 6000 -SHSN OVC027 M06/M08 Q1019
EFSI - Seinajoki-Ilmajoki, Finland
Etäisyys asemalta: Luode 114 km
Päivitetty: 23.01.2022 04:50
Heikkoja sadekuuroja, Lumisadetta, Pilvistä  
Heikkoja sadekuuroja, Lumisadetta, Pilvistä  
   Tuuli: Etelä 4.6 m/s
Tuuli: Etelä 4.6 m/s
Lämpötila: -2°C
Tuulen hyytävyys: -7°C
Kastepiste: -3°C
Kosteus: 93%
Ilmanpaine: 1015 hPa
Pilvisyys: Pilvistä
Näkyvyys: Enemmän kuin 10 km
Pilvitiedot: Pilvistä 152 m
EFSI 230250Z AUTO 19009KT 9999 -SHSN OVC005 M02/M03 Q1015 REFZDZ
EFMI - Mikkeli, Finland
Etäisyys asemalta: Itäkaakko 147 km
Päivitetty: 23.01.2022 04:50
Selkeää  
Selkeää  
   Tuuli: Vaihtelee 0.5 m/s
Tuuli: Vaihtelee 0.5 m/s
Lämpötila: -13°C
Kastepiste: -14°C
Kosteus: 92%
Ilmanpaine: 1020 hPa
Näkyvyys: Enemmän kuin 10 km
Pilvitiedot: Selkeää
EFMI 230250Z AUTO VRB01KT CAVOK M13/M14 Q1020
EFPO - Pori (Mil/Civ), Finland
Etäisyys asemalta: Länsilounas 154 km
Päivitetty: 23.01.2022 04:50
Heikkoa jäätävää sadetta, Tihkusadetta, Lumisadetta, Pilvistä  
Heikkoa jäätävää sadetta, Tihkusadetta, Lumisadetta, Pilvistä  
   Tuuli: Etelälounas 3.1 m/s
Tuuli: Etelälounas 3.1 m/s
Lämpötila: -2°C
Tuulen hyytävyys: -6°C
Kastepiste: -3°C
Kosteus: 93%
Ilmanpaine: 1019 hPa
Pilvisyys: Pilvistä
Näkyvyys: Enemmän kuin 10 km
Pilvitiedot: Pilvistä 335 m
EFPO 230250Z AUTO 20006KT 9999 -FZDZSN OVC011 M02/M03 Q1019
EFUT - Utti (Fin-Afb), Finland
Etäisyys asemalta: Kaakko 180 km
Päivitetty: 23.01.2022 04:50
Selkeää  
Selkeää  
   Tuuli: Lounas 1 m/s
Tuuli: Lounas 1 m/s
Lämpötila: -10°C
Kastepiste: -12°C
Kosteus: 85%
Ilmanpaine: 1021 hPa
Näkyvyys: Enemmän kuin 10 km
Pilvitiedot: Selkeää
EFUT 230250Z AUTO 22002KT CAVOK M10/M12 Q1021
EFVA - Vaasa, Finland
Etäisyys asemalta: Luode 180 km
Päivitetty: 23.01.2022 04:50
Pilvistä  
Pilvistä  
   Tuuli: Etelälounas 7.7 m/s
Tuuli: Etelälounas 7.7 m/s
Lämpötila: 1°C
Tuulen hyytävyys: -5°C
Kastepiste: 0°C
Kosteus: 93%
Ilmanpaine: 1014 hPa
Pilvisyys: Pilvistä
Näkyvyys: Enemmän kuin 10 km
Pilvitiedot: Pilvistä 122 m
EFVA 230250Z AUTO 21015KT 9999 OVC004 01/00 Q1014
EFHK - Helsinki/Vantaa, Finland
Etäisyys asemalta: Etelä 191 km
Päivitetty: 23.01.2022 04:50
Selkeää  
Selkeää  
   Tuuli: Vaihtelee 1 m/s
Tuuli: Vaihtelee 1 m/s
Lämpötila: -7°C
Kastepiste: -9°C
Kosteus: 86%
Ilmanpaine: 1022 hPa
Näkyvyys: Enemmän kuin 10 km
Pilvitiedot: Selkeää
EFHK 230250Z VRB02KT CAVOK M07/M09 Q1022 NOSIG

Alkuperäinen skripti  Saratoga-weather.org Sovitettu myös templatelle  Weerstation Leuven

Laitteet joita käytämme:

Sääasema
Davis VP2

Sääasemaohjelma
Cumulus

Sääaseman palvelin
HP ProBook 6460b

Palveluntarjoaja
Radicenter

Davis VP2

Cumulus

HP ProBook 6460b

Radicenter




Flag Counter Cumulus Top Weather Sites